Time;durP1;ratioP1;P1;durP2;ratioP2;P2;SDS_P1;SDS_P2;PMS_P1;PMS_P2;Temp;Humidity;BMP_temperature;BMP_pressure;BME280_temperature;BME280_humidity;BME280_pressure;Samples;Min_cycle;Max_cycle;Signal;HPM_P1;HPM_P2
2022/10/08 00:00:10;;;;;;;1.58;1.38;;;21.80;59.00;;;;;;5064096;28;20090;-42
2022/10/08 00:02:35;;;;;;;1.60;1.50;;;21.80;59.00;;;;;;5060966;28;20495;-43
2022/10/08 00:05:01;;;;;;;1.30;1.17;;;21.70;59.00;;;;;;5065458;28;20039;-43
2022/10/08 00:07:26;;;;;;;1.40;1.30;;;21.80;59.00;;;;;;5066183;28;20114;-41
2022/10/08 00:09:52;;;;;;;1.38;1.17;;;21.80;58.90;;;;;;5065076;28;20045;-42
2022/10/08 00:12:18;;;;;;;1.20;1.15;;;21.70;59.60;;;;;;5067034;28;20108;-43
2022/10/08 00:14:43;;;;;;;1.98;1.35;;;21.70;58.90;;;;;;5063627;28;20059;-42
2022/10/08 00:17:09;;;;;;;1.02;0.95;;;21.70;59.00;;;;;;5066649;28;20044;-42
2022/10/08 00:19:34;;;;;;;0.90;0.90;;;21.70;59.00;;;;;;5065336;28;20044;-42
2022/10/08 00:22:00;;;;;;;1.25;1.15;;;21.70;59.10;;;;;;5062870;28;20063;-42
2022/10/08 00:24:26;;;;;;;1.02;0.93;;;21.70;59.80;;;;;;5065445;28;20044;-43
2022/10/08 00:26:52;;;;;;;1.13;1.08;;;21.70;59.20;;;;;;5066123;28;20044;-43
2022/10/08 00:29:19;;;;;;;1.30;1.20;;;21.60;59.20;;;;;;5063936;28;20044;-41
2022/10/08 00:31:45;;;;;;;1.80;1.13;;;21.60;59.30;;;;;;5065907;28;20056;-42
2022/10/08 00:34:22;;;;;;;0.90;0.90;;;21.60;59.20;;;;;;5066066;28;20037;-44
2022/10/08 00:36:50;;;;;;;1.08;1.08;;;21.70;59.40;;;;;;5066757;28;20093;-42
2022/10/08 00:39:17;;;;;;;1.20;1.10;;;21.60;59.30;;;;;;5063954;28;20051;-43
2022/10/08 00:41:44;;;;;;;1.00;1.00;;;21.60;59.40;;;;;;5066177;28;20050;-44
2022/10/08 00:44:53;;;;;;;0.90;0.90;;;21.60;59.40;;;;;;5066237;28;20045;-44
2022/10/08 00:47:31;;;;;;;1.10;1.10;;;21.60;59.40;;;;;;5055032;28;20549;-43
2022/10/08 00:50:17;;;;;;;1.27;1.17;;;21.60;59.40;;;;;;5046315;28;20420;-41
2022/10/08 00:52:54;;;;;;;1.05;1.05;;;21.60;59.40;;;;;;5075376;28;20481;-41
2022/10/08 00:55:21;;;;;;;1.08;0.98;;;21.60;59.50;;;;;;5063713;28;20033;-42
2022/10/08 00:57:47;;;;;;;0.90;0.90;;;21.60;59.50;;;;;;5043613;28;20579;-42
2022/10/08 01:00:20;;;;;;;0.90;0.90;;;21.50;59.50;;;;;;5051011;28;20095;-43
2022/10/08 01:02:46;;;;;;;1.13;1.10;;;21.60;59.50;;;;;;5047238;28;20053;-44
2022/10/08 01:05:13;;;;;;;1.27;1.27;;;21.60;59.50;;;;;;5057472;28;20138;-42
2022/10/08 01:08:05;;;;;;;0.90;0.90;;;21.50;59.60;;;;;;5045280;28;20085;-40
2022/10/08 01:10:44;;;;;;;0.90;0.90;;;21.50;59.60;;;;;;5058866;28;20040;-42
2022/10/08 01:13:10;;;;;;;0.90;0.90;;;21.50;59.70;;;;;;5055715;28;20132;-42
2022/10/08 01:15:43;;;;;;;0.90;0.90;;;21.50;59.70;;;;;;5042543;28;20187;-43
2022/10/08 01:18:11;;;;;;;0.70;0.70;;;21.50;59.70;;;;;;5049321;28;20029;-43
2022/10/08 01:21:03;;;;;;;0.80;0.80;;;21.50;59.80;;;;;;5052746;28;20051;-42
2022/10/08 01:23:56;;;;;;;0.93;0.93;;;21.50;60.40;;;;;;5043472;28;20080;-43
2022/10/08 01:26:24;;;;;;;1.05;1.00;;;21.50;59.70;;;;;;5048927;28;20068;-42
2022/10/08 01:28:55;;;;;;;0.80;0.80;;;21.50;59.80;;;;;;5034727;28;20511;-43
2022/10/08 01:31:30;;;;;;;0.82;0.82;;;21.40;59.80;;;;;;5055577;28;20092;-43
2022/10/08 01:33:59;;;;;;;0.75;0.75;;;21.40;59.80;;;;;;5052464;28;20053;-42
2022/10/08 01:36:25;;;;;;;0.90;0.90;;;21.40;59.80;;;;;;5041626;28;20527;-43
2022/10/08 01:38:55;;;;;;;0.90;0.90;;;21.40;59.80;;;;;;5047754;28;20045;-43
2022/10/08 01:41:21;;;;;;;0.60;0.60;;;21.40;59.80;;;;;;5043110;28;20124;-43
2022/10/08 01:43:50;;;;;;;0.77;0.77;;;21.40;59.80;;;;;;5059183;28;20131;-43
2022/10/08 01:46:21;;;;;;;1.17;1.00;;;21.40;59.80;;;;;;5049949;28;20119;-41
2022/10/08 01:48:48;;;;;;;0.82;0.82;;;21.40;59.80;;;;;;5062754;28;20040;-42
2022/10/08 01:51:16;;;;;;;1.00;0.88;;;21.40;59.80;;;;;;5043901;28;20041;-42
2022/10/08 01:53:44;;;;;;;0.70;0.60;;;21.40;59.80;;;;;;5036607;28;20049;-41
2022/10/08 01:56:11;;;;;;;0.68;0.68;;;21.40;60.00;;;;;;5063549;28;20045;-42
2022/10/08 01:58:46;;;;;;;0.70;0.70;;;21.30;60.00;;;;;;5052509;28;20098;-42
2022/10/08 02:01:17;;;;;;;0.70;0.70;;;21.30;59.90;;;;;;5042611;28;20112;-42
2022/10/08 02:04:31;;;;;;;0.70;0.70;;;21.40;60.00;;;;;;5045355;28;20045;-42
2022/10/08 02:06:28;;;;;;;0.88;0.88;;;21.30;59.90;;;;;;5045112;28;20059;-41
2022/10/08 02:08:53;;;;;;;0.60;0.60;;;21.30;59.90;;;;;;5037898;28;20411;-42
2022/10/08 02:11:19;;;;;;;0.80;0.80;;;21.30;60.00;;;;;;5064629;28;20040;-40
2022/10/08 02:13:45;;;;;;;1.13;0.80;;;21.30;60.00;;;;;;5051171;28;20446;-42
2022/10/08 02:16:15;;;;;;;0.70;0.70;;;21.30;60.00;;;;;;5042935;28;20048;-43
2022/10/08 02:18:50;;;;;;;0.68;0.68;;;21.30;60.10;;;;;;5036040;28;20043;-41
2022/10/08 02:21:23;;;;;;;0.82;0.82;;;21.30;60.10;;;;;;5061272;28;20063;-41
2022/10/08 02:23:54;;;;;;;0.60;0.60;;;21.30;60.00;;;;;;5063103;28;20413;-41
2022/10/08 02:26:24;;;;;;;0.73;0.73;;;21.30;59.90;;;;;;5046493;28;20090;-42
2022/10/08 02:28:54;;;;;;;0.80;0.80;;;21.30;60.00;;;;;;5033819;28;20056;-42
2022/10/08 02:31:28;;;;;;;0.73;0.73;;;21.30;60.50;;;;;;5046313;28;20123;-41
2022/10/08 02:34:22;;;;;;;0.75;0.75;;;21.30;60.20;;;;;;5044263;28;20598;-42
2022/10/08 02:37:00;;;;;;;0.55;0.55;;;21.30;60.30;;;;;;5053521;28;20095;-41
2022/10/08 02:39:27;;;;;;;0.60;0.60;;;21.30;60.10;;;;;;5042621;28;20021;-42
2022/10/08 02:41:53;;;;;;;0.80;0.80;;;21.30;60.30;;;;;;5047681;28;20120;-42
2022/10/08 02:44:27;;;;;;;1.02;0.93;;;21.30;60.20;;;;;;5043930;28;20037;-41
2022/10/08 02:46:53;;;;;;;0.70;0.70;;;21.30;60.20;;;;;;5063197;28;20047;-40
2022/10/08 02:49:24;;;;;;;0.80;0.80;;;21.30;60.20;;;;;;5066028;28;20560;-41
2022/10/08 02:51:51;;;;;;;0.50;0.50;;;21.20;60.20;;;;;;5063048;28;20056;-40
2022/10/08 02:54:20;;;;;;;0.70;0.70;;;21.20;60.30;;;;;;5045666;28;20052;-43
2022/10/08 02:56:51;;;;;;;0.73;0.73;;;21.20;60.30;;;;;;5066217;28;20036;-43
2022/10/08 02:59:17;;;;;;;0.82;0.70;;;21.30;60.30;;;;;;5058968;28;20136;-41
2022/10/08 03:01:50;;;;;;;0.68;0.60;;;21.30;60.30;;;;;;5078099;28;20484;-42
2022/10/08 03:04:16;;;;;;;0.50;0.50;;;21.20;60.30;;;;;;5047966;28;20070;-41
2022/10/08 03:06:41;;;;;;;0.50;0.50;;;21.20;60.60;;;;;;5067158;28;20044;-43
2022/10/08 03:09:07;;;;;;;0.70;0.70;;;21.20;60.60;;;;;;5066727;28;20093;-41
2022/10/08 03:11:33;;;;;;;0.68;0.68;;;21.20;60.60;;;;;;5047775;28;20072;-42
2022/10/08 03:13:59;;;;;;;0.70;0.70;;;21.20;60.70;;;;;;5037140;28;20513;-44
2022/10/08 03:16:27;;;;;;;0.57;0.57;;;21.20;60.50;;;;;;5050930;28;20102;-42
2022/10/08 03:18:52;;;;;;;0.80;0.80;;;21.20;60.60;;;;;;5045693;28;20427;-40
2022/10/08 03:21:18;;;;;;;0.60;0.60;;;21.20;60.50;;;;;;5051164;28;20495;-42
2022/10/08 03:23:44;;;;;;;0.60;0.60;;;21.20;60.50;;;;;;5060517;28;20514;-41
2022/10/08 03:26:09;;;;;;;0.77;0.75;;;21.20;60.70;;;;;;5058295;28;20052;-42
2022/10/08 03:28:35;;;;;;;0.43;0.43;;;21.20;60.70;;;;;;5045296;28;20463;-40
2022/10/08 03:31:04;;;;;;;0.73;0.73;;;21.20;60.70;;;;;;5065824;28;20079;-41
2022/10/08 03:33:31;;;;;;;0.50;0.40;;;21.20;61.40;;;;;;5060904;28;20067;-41
2022/10/08 03:35:57;;;;;;;0.50;0.50;;;21.20;60.70;;;;;;5060279;28;20052;-41
2022/10/08 03:38:22;;;;;;;0.50;0.50;;;21.20;60.70;;;;;;5068065;28;20407;-41
2022/10/08 03:40:57;;;;;;;0.65;0.65;;;21.10;60.70;;;;;;5084030;28;20068;-40
2022/10/08 03:43:23;;;;;;;0.60;0.60;;;21.20;60.80;;;;;;5058512;28;20102;-46
2022/10/08 03:45:52;;;;;;;0.95;0.60;;;21.20;60.80;;;;;;5062815;28;20457;-43
2022/10/08 03:48:18;;;;;;;0.68;0.68;;;21.20;60.70;;;;;;5064693;28;20083;-42
2022/10/08 03:50:58;;;;;;;0.75;0.75;;;21.20;60.90;;;;;;5058096;28;20065;-41
2022/10/08 03:53:23;;;;;;;0.55;0.50;;;21.10;60.80;;;;;;5051773;28;20094;-41
2022/10/08 03:55:49;;;;;;;0.60;0.60;;;21.10;60.80;;;;;;5068894;28;20040;-45
2022/10/08 03:58:15;;;;;;;0.40;0.40;;;21.10;60.80;;;;;;5061721;28;20075;-42
2022/10/08 04:00:41;;;;;;;0.60;0.60;;;21.10;60.90;;;;;;5064057;28;20041;-43
2022/10/08 04:03:06;;;;;;;0.50;0.50;;;21.10;60.80;;;;;;5047411;28;20064;-42
2022/10/08 04:05:32;;;;;;;0.70;0.60;;;21.10;60.80;;;;;;5042325;28;20442;-41
2022/10/08 04:07:57;;;;;;;0.60;0.60;;;21.10;60.80;;;;;;5063484;28;20093;-39
2022/10/08 04:10:23;;;;;;;0.43;0.43;;;21.10;61.60;;;;;;5061509;28;20041;-43
2022/10/08 04:12:48;;;;;;;0.63;0.45;;;21.10;60.80;;;;;;5054449;28;20049;-43
2022/10/08 04:15:14;;;;;;;0.30;0.30;;;21.10;60.80;;;;;;5054126;28;20036;-44
2022/10/08 04:17:40;;;;;;;0.50;0.50;;;21.10;60.80;;;;;;5061831;28;20044;-42
2022/10/08 04:20:06;;;;;;;0.50;0.50;;;21.10;60.90;;;;;;5050883;28;20170;-41
2022/10/08 04:22:32;;;;;;;0.63;0.60;;;21.10;60.80;;;;;;5063625;28;20139;-43
2022/10/08 04:24:57;;;;;;;0.50;0.40;;;21.10;60.80;;;;;;5062349;28;20056;-42
2022/10/08 04:27:23;;;;;;;0.60;0.60;;;21.10;60.80;;;;;;5060643;28;20052;-41
2022/10/08 04:29:48;;;;;;;0.40;0.40;;;21.10;60.80;;;;;;5046794;28;20037;-41
2022/10/08 04:32:15;;;;;;;0.43;0.43;;;21.10;60.80;;;;;;5048043;28;20121;-43
2022/10/08 04:34:40;;;;;;;0.40;0.40;;;21.10;60.80;;;;;;5044141;28;20065;-44
2022/10/08 04:37:06;;;;;;;0.60;0.60;;;21.10;60.90;;;;;;5047239;28;20080;-41
2022/10/08 04:39:31;;;;;;;1.00;0.60;;;21.10;60.80;;;;;;5054006;28;20048;-41
2022/10/08 04:41:57;;;;;;;0.40;0.40;;;21.00;60.90;;;;;;5060945;28;20430;-43
2022/10/08 04:44:22;;;;;;;0.43;0.40;;;21.00;60.90;;;;;;5059932;28;20089;-41
2022/10/08 04:46:48;;;;;;;0.40;0.40;;;21.10;61.00;;;;;;5063777;28;20044;-41
2022/10/08 04:49:13;;;;;;;0.50;0.50;;;21.10;61.00;;;;;;5064603;28;20043;-40
2022/10/08 04:51:39;;;;;;;0.50;0.40;;;21.00;60.90;;;;;;5062134;28;20033;-31
2022/10/08 04:54:04;;;;;;;0.57;0.57;;;21.00;61.00;;;;;;5062770;28;20037;-41
2022/10/08 04:56:30;;;;;;;0.45;0.40;;;21.10;61.10;;;;;;5059192;28;20040;-41
2022/10/08 04:58:57;;;;;;;0.73;0.40;;;21.00;60.90;;;;;;5060837;28;20032;-43
2022/10/08 05:01:23;;;;;;;0.40;0.40;;;21.10;61.10;;;;;;5060683;28;20044;-40
2022/10/08 05:03:50;;;;;;;0.40;0.40;;;21.00;60.90;;;;;;5061250;28;20032;-41
2022/10/08 05:06:17;;;;;;;0.50;0.50;;;21.10;61.10;;;;;;5065366;28;20101;-42
2022/10/08 05:08:43;;;;;;;0.43;0.43;;;21.00;61.20;;;;;;5049804;28;20048;-41
2022/10/08 05:11:09;;;;;;;0.55;0.55;;;21.00;61.00;;;;;;5048615;28;20128;-42
2022/10/08 05:13:35;;;;;;;0.50;0.50;;;21.00;61.00;;;;;;5036242;28;20625;-42
2022/10/08 05:16:11;;;;;;;0.30;0.30;;;21.00;61.10;;;;;;5062841;28;20415;-41
2022/10/08 05:18:36;;;;;;;0.50;0.50;;;21.00;60.90;;;;;;5054488;28;20530;-41
2022/10/08 05:21:07;;;;;;;0.57;0.57;;;21.00;60.90;;;;;;5061505;28;20115;-41
2022/10/08 05:23:33;;;;;;;0.50;0.50;;;21.00;61.10;;;;;;5058264;28;20569;-44
2022/10/08 05:25:58;;;;;;;0.40;0.40;;;21.00;60.70;;;;;;5045630;28;20041;-43
2022/10/08 05:28:24;;;;;;;0.52;0.52;;;21.00;60.80;;;;;;5048812;28;20431;-42
2022/10/08 05:30:49;;;;;;;0.30;0.30;;;21.00;60.70;;;;;;5046587;28;20036;-41
2022/10/08 05:33:15;;;;;;;0.40;0.40;;;21.00;60.90;;;;;;5050437;28;20033;-41
2022/10/08 05:35:40;;;;;;;0.40;0.40;;;21.00;60.90;;;;;;5049922;28;20037;-41
2022/10/08 05:38:06;;;;;;;0.40;0.40;;;21.00;60.90;;;;;;5063088;28;20059;-41
2022/10/08 05:40:32;;;;;;;0.52;0.47;;;21.00;61.00;;;;;;5064998;28;20507;-42
2022/10/08 05:42:57;;;;;;;0.30;0.30;;;21.00;61.20;;;;;;5043812;28;20048;-41
2022/10/08 05:45:23;;;;;;;0.40;0.40;;;21.00;61.00;;;;;;5049760;28;20048;-42
2022/10/08 05:47:48;;;;;;;0.45;0.45;;;21.00;61.20;;;;;;5041412;28;20047;-40
2022/10/08 05:50:14;;;;;;;0.40;0.40;;;21.00;61.30;;;;;;5057155;28;20053;-41
2022/10/08 05:52:40;;;;;;;0.30;0.30;;;21.00;61.20;;;;;;5058241;28;20032;-43
2022/10/08 05:55:06;;;;;;;0.25;0.25;;;21.00;62.10;;;;;;5043257;28;20917;-40
2022/10/08 05:57:32;;;;;;;0.50;0.50;;;21.00;61.20;;;;;;5042150;28;20053;-42
2022/10/08 05:59:57;;;;;;;1.15;0.50;;;21.00;61.20;;;;;;5057253;28;20426;-41
2022/10/08 06:02:23;;;;;;;0.43;0.43;;;21.00;61.20;;;;;;5064041;28;20072;-42
2022/10/08 06:04:49;;;;;;;0.45;0.45;;;21.00;61.40;;;;;;5059127;28;20056;-42
2022/10/08 06:07:14;;;;;;;0.40;0.40;;;21.00;62.30;;;;;;5062136;28;20675;-42
2022/10/08 06:09:40;;;;;;;2.78;0.22;;;21.00;61.30;;;;;;5042921;28;20714;-42
2022/10/08 06:12:07;;;;;;;0.40;0.40;;;21.00;61.30;;;;;;5052327;28;22105;-40
2022/10/08 06:14:33;;;;;;;0.80;0.35;;;21.00;61.40;;;;;;5062795;28;20040;-40
2022/10/08 06:16:58;;;;;;;0.65;0.40;;;21.00;62.10;;;;;;5059894;28;20473;-42
2022/10/08 06:19:24;;;;;;;0.40;0.40;;;21.00;61.30;;;;;;5053829;28;20048;-41
2022/10/08 06:21:49;;;;;;;0.50;0.45;;;21.00;62.20;;;;;;5055088;28;20037;-36
2022/10/08 06:24:15;;;;;;;0.60;0.30;;;20.90;61.60;;;;;;5061463;28;20043;-40
2022/10/08 06:26:41;;;;;;;0.50;0.40;;;20.90;61.60;;;;;;5055066;28;20511;-41
2022/10/08 06:29:09;;;;;;;0.30;0.30;;;20.90;61.40;;;;;;5062662;28;20190;-41
2022/10/08 06:31:34;;;;;;;0.50;0.50;;;20.90;61.50;;;;;;5047739;28;20136;-42
2022/10/08 06:34:02;;;;;;;0.50;0.50;;;20.90;61.50;;;;;;5042349;28;20538;-41
2022/10/08 06:36:28;;;;;;;0.35;0.35;;;20.90;61.60;;;;;;5049872;28;20671;-40
2022/10/08 06:39:02;;;;;;;0.30;0.30;;;20.90;61.60;;;;;;5034688;28;20029;-44
2022/10/08 06:41:34;;;;;;;0.30;0.30;;;20.90;61.60;;;;;;5048648;28;20044;-42
2022/10/08 06:44:04;;;;;;;0.30;0.30;;;20.90;61.70;;;;;;5040540;28;20296;-40
2022/10/08 06:46:31;;;;;;;0.38;0.35;;;20.90;62.50;;;;;;5054973;28;20040;-42
2022/10/08 06:48:57;;;;;;;0.30;0.30;;;20.90;61.80;;;;;;5043941;28;20124;-41
2022/10/08 06:51:23;;;;;;;0.40;0.38;;;20.90;61.60;;;;;;5063255;28;20052;-43
2022/10/08 06:53:53;;;;;;;0.30;0.30;;;20.90;61.70;;;;;;5043493;28;20041;-40
2022/10/08 06:56:19;;;;;;;0.40;0.40;;;20.90;61.60;;;;;;5046712;28;20048;-42
2022/10/08 06:58:46;;;;;;;0.30;0.30;;;20.90;61.60;;;;;;5048074;28;20424;-42
2022/10/08 07:01:22;;;;;;;0.20;0.20;;;20.90;61.80;;;;;;5043353;28;20052;-41
2022/10/08 07:03:53;;;;;;;0.28;0.28;;;20.90;61.60;;;;;;5044331;28;20084;-40
2022/10/08 07:06:18;;;;;;;0.30;0.30;;;20.90;61.70;;;;;;5043334;28;20111;-42
2022/10/08 07:08:44;;;;;;;0.38;0.38;;;20.90;61.80;;;;;;5037863;28;20443;-41
2022/10/08 07:11:09;;;;;;;0.32;0.30;;;20.90;61.80;;;;;;5044850;28;20121;-41
2022/10/08 07:13:35;;;;;;;0.30;0.20;;;20.90;61.70;;;;;;5044081;28;20041;-41
2022/10/08 07:16:02;;;;;;;0.47;0.45;;;20.90;61.70;;;;;;5051652;28;21109;-40
2022/10/08 07:18:28;;;;;;;0.40;0.30;;;20.90;61.70;;;;;;5051221;28;20026;-40
2022/10/08 07:20:55;;;;;;;0.40;0.40;;;20.90;61.70;;;;;;5049467;28;20070;-41
2022/10/08 07:23:20;;;;;;;0.40;0.40;;;20.90;62.30;;;;;;5037861;28;20881;-40
2022/10/08 07:25:57;;;;;;;0.30;0.30;;;20.90;62.30;;;;;;5036504;28;20083;-41
2022/10/08 07:28:24;;;;;;;0.45;0.30;;;20.90;62.20;;;;;;5064475;28;20040;-41
2022/10/08 07:30:50;;;;;;;0.50;0.50;;;21.00;62.00;;;;;;5048046;28;20558;-40
2022/10/08 07:33:15;;;;;;;0.22;0.22;;;21.00;62.00;;;;;;5035629;28;20120;-41
2022/10/08 07:35:41;;;;;;;0.60;0.30;;;20.90;62.20;;;;;;5049800;28;20522;-40
2022/10/08 07:38:17;;;;;;;0.96;0.20;;;20.90;62.20;;;;;;4968187;28;10001193;-41
2022/10/08 07:40:44;;;;;;;0.50;0.50;;;20.90;62.10;;;;;;5042651;28;20313;-41
2022/10/08 07:43:09;;;;;;;0.43;0.40;;;20.90;62.30;;;;;;5030183;28;20088;-42
2022/10/08 07:45:35;;;;;;;2.25;0.60;;;21.00;62.60;;;;;;5034263;28;20036;-42
2022/10/08 07:48:00;;;;;;;0.40;0.30;;;20.90;62.50;;;;;;5019161;28;20131;-41
2022/10/08 07:50:26;;;;;;;0.20;0.20;;;20.80;62.50;;;;;;5031778;28;20044;-42
2022/10/08 07:52:52;;;;;;;0.95;0.30;;;20.70;62.60;;;;;;5037241;28;20456;-40
2022/10/08 07:55:17;;;;;;;0.30;0.30;;;20.80;63.00;;;;;;5037997;28;20094;-41
2022/10/08 07:57:43;;;;;;;0.20;0.20;;;20.70;63.40;;;;;;5031154;28;20067;-40
2022/10/08 08:00:09;;;;;;;0.65;0.30;;;20.80;63.20;;;;;;5034974;28;20049;-41
2022/10/08 08:02:34;;;;;;;0.50;0.32;;;20.80;63.10;;;;;;5035625;28;20114;-42
2022/10/08 08:05:00;;;;;;;0.65;0.25;;;20.80;63.20;;;;;;5037416;28;20052;-41
2022/10/08 08:07:25;;;;;;;0.45;0.20;;;20.70;63.10;;;;;;5036718;28;20045;-41
2022/10/08 08:09:51;;;;;;;0.35;0.20;;;20.70;63.20;;;;;;5037367;28;20052;-44
2022/10/08 08:12:16;;;;;;;1.27;0.63;;;20.70;63.30;;;;;;5038817;28;20611;-42
2022/10/08 08:14:42;;;;;;;0.75;0.40;;;20.70;63.50;;;;;;5039984;28;20059;-40
2022/10/08 08:17:07;;;;;;;0.82;0.30;;;20.70;63.40;;;;;;5042616;28;20432;-42
2022/10/08 08:19:33;;;;;;;0.45;0.30;;;20.70;63.40;;;;;;5054813;28;20051;-42
2022/10/08 08:21:59;;;;;;;0.40;0.40;;;20.70;63.30;;;;;;5045174;28;20119;-41
2022/10/08 08:24:24;;;;;;;0.30;0.30;;;20.80;63.20;;;;;;5043593;28;20059;-42
2022/10/08 08:26:50;;;;;;;0.35;0.30;;;20.80;63.30;;;;;;5034900;28;20072;-41
2022/10/08 08:29:17;;;;;;;0.35;0.20;;;20.80;63.20;;;;;;5033219;28;20623;-41
2022/10/08 08:31:46;;;;;;;0.40;0.25;;;20.80;63.10;;;;;;5035846;28;20580;-45
2022/10/08 08:34:16;;;;;;;0.30;0.22;;;20.90;62.90;;;;;;5035095;28;20570;-40
2022/10/08 08:36:43;;;;;;;2.50;0.50;;;21.00;62.70;;;;;;5051075;28;20048;-41
2022/10/08 08:39:16;;;;;;;0.40;0.20;;;20.90;62.70;;;;;;5054182;28;20495;-42
2022/10/08 08:42:00;;;;;;;0.22;0.22;;;20.90;62.90;;;;;;5057964;28;20038;-40
2022/10/08 08:44:34;;;;;;;0.35;0.35;;;20.90;62.80;;;;;;5049495;28;20048;-41
2022/10/08 08:47:16;;;;;;;0.68;0.30;;;20.90;62.80;;;;;;5054240;28;20141;-41
2022/10/08 08:49:45;;;;;;;0.32;0.30;;;20.90;62.60;;;;;;5057337;28;20036;-41
2022/10/08 08:52:12;;;;;;;0.30;0.28;;;21.00;62.60;;;;;;5053380;28;20036;-41
2022/10/08 08:54:38;;;;;;;0.30;0.20;;;21.00;62.50;;;;;;5053611;28;20095;-42
2022/10/08 08:57:44;;;;;;;0.30;0.30;;;21.10;62.30;;;;;;5053200;28;20048;-43
2022/10/08 09:00:21;;;;;;;0.30;0.30;;;21.00;62.30;;;;;;5052410;28;20156;-41
2022/10/08 09:03:05;;;;;;;0.20;0.20;;;21.10;62.20;;;;;;5052503;28;20983;-42
2022/10/08 09:05:32;;;;;;;0.13;0.10;;;21.20;62.30;;;;;;5057667;28;20384;-41
2022/10/08 09:08:16;;;;;;;0.30;0.20;;;21.10;62.20;;;;;;5034396;28;20067;-42
2022/10/08 09:10:53;;;;;;;0.20;0.20;;;21.10;62.20;;;;;;5052667;28;20040;-42
2022/10/08 09:13:46;;;;;;;0.30;0.30;;;21.20;62.20;;;;;;5057039;28;20036;-42
2022/10/08 09:16:12;;;;;;;0.20;0.20;;;21.10;62.30;;;;;;5054028;28;20415;-42
2022/10/08 09:18:39;;;;;;;0.30;0.30;;;21.20;62.00;;;;;;5050130;28;20045;-41
2022/10/08 09:21:04;;;;;;;0.20;0.20;;;21.20;62.10;;;;;;5053076;28;20637;-41
2022/10/08 09:23:30;;;;;;;0.50;0.20;;;21.20;62.20;;;;;;5050617;28;20051;-42
2022/10/08 09:26:00;;;;;;;0.30;0.30;;;21.20;62.20;;;;;;5050920;28;20646;-40
2022/10/08 09:28:39;;;;;;;0.28;0.28;;;21.30;61.70;;;;;;5050527;28;20051;-43
2022/10/08 09:31:35;;;;;;;0.28;0.20;;;21.30;61.70;;;;;;5046106;28;20091;-44
2022/10/08 09:34:14;;;;;;;0.60;0.20;;;21.30;62.00;;;;;;5058090;28;20055;-44
2022/10/08 09:36:50;;;;;;;0.25;0.25;;;21.30;61.90;;;;;;5045793;28;20056;-46
2022/10/08 09:39:31;;;;;;;0.28;0.28;;;21.30;61.90;;;;;;5040122;28;20165;-45
2022/10/08 09:42:06;;;;;;;0.28;0.25;;;21.30;62.10;;;;;;5044419;28;20101;-44
2022/10/08 09:44:45;;;;;;;0.45;0.30;;;21.30;62.10;;;;;;5045498;28;20071;-44
2022/10/08 09:47:13;;;;;;;1.05;0.30;;;21.30;62.00;;;;;;5046117;28;20084;-44
2022/10/08 09:49:39;;;;;;;2.42;0.40;;;21.30;61.70;;;;;;5043857;28;20051;-45
2022/10/08 09:52:12;;;;;;;1.00;0.68;;;21.30;61.50;;;;;;5045979;28;20052;-45
2022/10/08 09:54:42;;;;;;;1.05;0.75;;;21.30;61.50;;;;;;5046581;28;20059;-46
2022/10/08 09:57:08;;;;;;;1.35;0.50;;;21.30;61.10;;;;;;5045322;28;20052;-44
2022/10/08 09:59:38;;;;;;;0.68;0.47;;;21.30;60.90;;;;;;5040697;28;20056;-44
2022/10/08 10:02:06;;;;;;;2.00;0.43;;;21.30;60.90;;;;;;5043794;28;20052;-45
2022/10/08 10:04:36;;;;;;;1.40;0.60;;;21.30;60.80;;;;;;5043485;28;20082;-45
2022/10/08 10:07:02;;;;;;;0.73;0.60;;;21.30;60.70;;;;;;5045724;28;20179;-45
2022/10/08 10:09:30;;;;;;;2.45;0.80;;;21.30;60.40;;;;;;5039751;28;20074;-45
2022/10/08 10:12:25;;;;;;;1.38;0.63;;;21.30;60.30;;;;;;5043956;28;20151;-44
2022/10/08 10:15:00;;;;;;;1.73;0.60;;;21.40;60.50;;;;;;5027414;28;20044;-44
2022/10/08 10:17:32;;;;;;;1.10;0.65;;;21.40;60.90;;;;;;5043521;28;20056;-44
2022/10/08 10:20:10;;;;;;;1.65;0.60;;;21.40;59.90;;;;;;5057449;28;20135;-42
2022/10/08 10:22:51;;;;;;;0.98;0.60;;;21.40;59.80;;;;;;5043637;28;20098;-45
2022/10/08 10:25:22;;;;;;;0.98;0.45;;;21.40;60.40;;;;;;5044608;28;20048;-42
2022/10/08 10:27:50;;;;;;;2.97;0.93;;;21.40;59.80;;;;;;5044380;28;20049;-44
2022/10/08 10:30:22;;;;;;;0.98;0.57;;;21.50;60.50;;;;;;5042939;28;20066;-43
2022/10/08 10:33:02;;;;;;;1.05;0.60;;;21.50;59.50;;;;;;5046136;28;20059;-41
2022/10/08 10:35:29;;;;;;;1.65;0.60;;;21.50;59.60;;;;;;5030327;28;20044;-44
2022/10/08 10:38:19;;;;;;;2.35;0.60;;;21.50;59.70;;;;;;5046211;28;20055;-42
2022/10/08 10:40:49;;;;;;;1.92;0.60;;;21.50;59.40;;;;;;5027538;28;20482;-43
2022/10/08 10:43:32;;;;;;;1.00;0.70;;;21.60;59.50;;;;;;5043227;28;20430;-42
2022/10/08 10:46:21;;;;;;;1.15;0.35;;;21.50;59.60;;;;;;5031087;28;20922;-45
2022/10/08 10:48:46;;;;;;;0.52;0.30;;;21.50;59.70;;;;;;5030249;28;20048;-45
2022/10/08 10:51:34;;;;;;;0.57;0.40;;;21.50;59.70;;;;;;5042675;28;20128;-45
2022/10/08 10:54:14;;;;;;;0.95;0.50;;;21.50;59.70;;;;;;5034240;28;20057;-26
2022/10/08 10:56:48;;;;;;;1.20;0.80;;;21.50;59.80;;;;;;5045886;28;20533;-45
2022/10/08 10:59:31;;;;;;;0.70;0.40;;;21.50;59.80;;;;;;5009139;28;20680;-44
2022/10/08 11:02:14;;;;;;;1.23;0.40;;;21.50;59.80;;;;;;5047966;28;20053;-44
2022/10/08 11:04:55;;;;;;;1.27;0.57;;;21.50;59.80;;;;;;5047857;28;20151;-45
2022/10/08 11:07:32;;;;;;;1.83;0.63;;;21.50;60.00;;;;;;5046478;28;20059;-45
2022/10/08 11:10:21;;;;;;;0.90;0.60;;;21.50;59.90;;;;;;5046832;28;20090;-44
2022/10/08 11:13:21;;;;;;;0.85;0.30;;;21.50;59.90;;;;;;5040951;28;20049;-45
2022/10/08 11:16:15;;;;;;;0.75;0.30;;;21.50;59.90;;;;;;5047344;28;20084;-45
2022/10/08 11:18:43;;;;;;;0.65;0.35;;;21.60;60.00;;;;;;5031614;28;20411;-45
2022/10/08 11:21:37;;;;;;;1.35;0.63;;;21.60;60.10;;;;;;5046433;28;20137;-45
2022/10/08 11:24:19;;;;;;;0.82;0.50;;;21.60;60.80;;;;;;5046095;28;20048;-44
2022/10/08 11:27:01;;;;;;;0.63;0.40;;;21.60;60.10;;;;;;5047600;28;20055;-45
2022/10/08 11:29:41;;;;;;;0.85;0.35;;;21.60;60.10;;;;;;5045081;28;20048;-45
2022/10/08 11:32:10;;;;;;;0.82;0.38;;;21.60;60.20;;;;;;5047607;28;20079;-44
2022/10/08 11:34:36;;;;;;;1.95;0.50;;;21.70;60.30;;;;;;5045583;28;20052;-47
2022/10/08 11:37:07;;;;;;;0.50;0.30;;;21.70;60.20;;;;;;5046316;28;20090;-28
2022/10/08 11:40:07;;;;;;;0.90;0.47;;;21.70;60.20;;;;;;5046843;28;20057;-45
2022/10/08 11:42:46;;;;;;;0.63;0.30;;;21.70;60.10;;;;;;5044263;28;20056;-45
2022/10/08 11:45:24;;;;;;;1.65;0.30;;;21.70;60.20;;;;;;5046656;28;20045;-45
2022/10/08 11:47:54;;;;;;;1.27;0.50;;;21.70;60.20;;;;;;5046604;28;20048;-45
2022/10/08 11:50:24;;;;;;;0.60;0.32;;;21.70;60.10;;;;;;5044305;28;20075;-46
2022/10/08 11:52:50;;;;;;;0.52;0.40;;;21.70;60.20;;;;;;5047089;28;20143;-44
2022/10/08 11:55:24;;;;;;;0.90;0.30;;;21.80;60.10;;;;;;5048210;28;20056;-45
2022/10/08 11:58:26;;;;;;;0.45;0.25;;;21.80;60.20;;;;;;5044526;28;20064;-45
2022/10/08 12:00:52;;;;;;;0.40;0.20;;;21.80;60.10;;;;;;5041720;28;20053;-45
2022/10/08 12:03:26;;;;;;;0.65;0.30;;;21.80;60.10;;;;;;5042391;28;20097;-44
2022/10/08 12:05:53;;;;;;;1.77;0.47;;;21.80;59.90;;;;;;5045810;28;20052;-45
2022/10/08 12:08:56;;;;;;;0.98;0.30;;;21.80;59.90;;;;;;5043871;28;20056;-45
2022/10/08 12:11:31;;;;;;;0.85;0.50;;;21.90;60.10;;;;;;5046189;28;20052;-46
2022/10/08 12:14:14;;;;;;;0.60;0.50;;;21.80;60.00;;;;;;4694279;28;9999943;-43
2022/10/08 12:16:55;;;;;;;0.50;0.50;;;21.90;60.00;;;;;;5049379;28;20441;-44
2022/10/08 12:19:33;;;;;;;1.33;0.40;;;21.90;60.00;;;;;;5044796;28;20548;-45
2022/10/08 12:22:23;;;;;;;0.68;0.35;;;21.90;60.20;;;;;;5048533;28;20072;-45
2022/10/08 12:24:49;;;;;;;0.30;0.20;;;21.90;60.00;;;;;;5044878;28;20055;-45
2022/10/08 12:27:23;;;;;;;0.80;0.40;;;22.00;60.10;;;;;;5044220;28;20107;-45
2022/10/08 12:30:10;;;;;;;1.38;0.40;;;22.00;60.00;;;;;;5045574;28;20055;-46
2022/10/08 12:32:42;;;;;;;0.52;0.20;;;22.00;59.80;;;;;;5045723;28;20063;-45
2022/10/08 12:35:20;;;;;;;0.68;0.30;;;22.10;59.50;;;;;;5048802;28;20054;-45
2022/10/08 12:38:03;;;;;;;0.57;0.30;;;22.10;59.00;;;;;;5045354;28;20102;-46
2022/10/08 12:40:43;;;;;;;0.70;0.38;;;22.20;58.80;;;;;;5045176;28;20063;-45
2022/10/08 12:43:11;;;;;;;0.65;0.30;;;22.10;58.80;;;;;;5044308;28;20050;-42
2022/10/08 12:45:51;;;;;;;0.60;0.40;;;22.10;58.80;;;;;;5047013;28;20131;-42
2022/10/08 12:48:32;;;;;;;1.05;0.45;;;22.10;58.60;;;;;;5043875;28;20043;-44
2022/10/08 12:51:21;;;;;;;1.23;0.50;;;22.10;58.40;;;;;;5045923;28;20044;-43
2022/10/08 12:53:47;;;;;;;0.80;0.40;;;22.20;58.30;;;;;;5047199;28;20453;-43
2022/10/08 12:56:21;;;;;;;0.82;0.50;;;22.20;58.20;;;;;;5047883;28;20063;-43
2022/10/08 12:58:46;;;;;;;;;;;22.20;57.80;;;;;;5046861;28;20897;-42
2022/10/08 13:01:14;;;;;;;0.80;0.20;;;22.20;57.70;;;;;;5045464;28;19920;-45
2022/10/08 13:03:39;;;;;;;0.50;0.20;;;22.20;57.40;;;;;;5044708;28;21164;-43
2022/10/08 13:06:16;;;;;;;1.20;0.45;;;22.20;57.70;;;;;;5046563;28;20067;-44